sensor_id;sensor_type;location;lat;lon;timestamp;pressure;altitude;pressure_sealevel;temperature;humidity
76311;BME280;65120;59.304;18.294;2022-12-10T00:01:26;100930.00;;;-2.92;69.38
76311;BME280;65120;59.304;18.294;2022-12-10T00:03:53;100929.81;;;-2.97;69.92
76311;BME280;65120;59.304;18.294;2022-12-10T00:06:22;100926.41;;;-2.97;69.48
76311;BME280;65120;59.304;18.294;2022-12-10T00:08:49;100935.13;;;-2.92;69.48
76311;BME280;65120;59.304;18.294;2022-12-10T00:11:17;100937.66;;;-2.92;69.66
76311;BME280;65120;59.304;18.294;2022-12-10T00:13:45;100941.09;;;-2.91;69.47
76311;BME280;65120;59.304;18.294;2022-12-10T00:16:14;100935.88;;;-2.95;69.22
76311;BME280;65120;59.304;18.294;2022-12-10T00:18:44;100935.94;;;-2.93;69.51
76311;BME280;65120;59.304;18.294;2022-12-10T00:21:12;100937.59;;;-2.94;69.50
76311;BME280;65120;59.304;18.294;2022-12-10T00:23:40;100942.56;;;-2.98;69.55
76311;BME280;65120;59.304;18.294;2022-12-10T00:26:09;100944.25;;;-2.99;69.42
76311;BME280;65120;59.304;18.294;2022-12-10T00:28:36;100945.97;;;-2.98;69.16
76311;BME280;65120;59.304;18.294;2022-12-10T00:31:04;100949.34;;;-2.99;69.18
76311;BME280;65120;59.304;18.294;2022-12-10T00:33:31;100954.47;;;-2.99;69.18
76311;BME280;65120;59.304;18.294;2022-12-10T00:36:02;100946.53;;;-3.05;68.87
76311;BME280;65120;59.304;18.294;2022-12-10T00:38:29;100938.69;;;-3.09;69.38
76311;BME280;65120;59.304;18.294;2022-12-10T00:40:56;100929.13;;;-3.15;69.41
76311;BME280;65120;59.304;18.294;2022-12-10T00:43:23;100949.19;;;-3.02;69.30
76311;BME280;65120;59.304;18.294;2022-12-10T00:45:50;100934.25;;;-3.13;69.59
76311;BME280;65120;59.304;18.294;2022-12-10T00:48:16;100947.34;;;-3.06;69.58
76311;BME280;65120;59.304;18.294;2022-12-10T00:50:43;100948.28;;;-3.04;69.37
76311;BME280;65120;59.304;18.294;2022-12-10T00:53:11;100946.59;;;-3.03;69.19
76311;BME280;65120;59.304;18.294;2022-12-10T00:55:38;100942.34;;;-3.03;69.48
76311;BME280;65120;59.304;18.294;2022-12-10T00:58:05;100946.50;;;-3.06;69.48
76311;BME280;65120;59.304;18.294;2022-12-10T01:00:32;100943.00;;;-3.08;69.06
76311;BME280;65120;59.304;18.294;2022-12-10T01:02:58;100922.00;;;-3.22;69.08
76311;BME280;65120;59.304;18.294;2022-12-10T01:05:25;100940.44;;;-3.08;69.57
76311;BME280;65120;59.304;18.294;2022-12-10T01:07:52;100947.34;;;-3.06;69.17
76311;BME280;65120;59.304;18.294;2022-12-10T01:10:20;100951.72;;;-3.03;69.25
76311;BME280;65120;59.304;18.294;2022-12-10T01:12:47;100955.09;;;-3.04;69.24
76311;BME280;65120;59.304;18.294;2022-12-10T01:15:14;100943.00;;;-3.08;69.17
76311;BME280;65120;59.304;18.294;2022-12-10T01:17:41;100940.38;;;-3.10;69.33
76311;BME280;65120;59.304;18.294;2022-12-10T01:20:08;100944.75;;;-3.07;69.05
76311;BME280;65120;59.304;18.294;2022-12-10T01:22:35;100943.75;;;-3.11;69.01
76311;BME280;65120;59.304;18.294;2022-12-10T01:25:02;100946.53;;;-3.05;69.41
76311;BME280;65120;59.304;18.294;2022-12-10T01:27:31;100956.72;;;-3.06;68.85
76311;BME280;65120;59.304;18.294;2022-12-10T01:29:57;100935.78;;;-3.19;69.41
76311;BME280;65120;59.304;18.294;2022-12-10T01:32:24;100949.88;;;-3.07;69.04
76311;BME280;65120;59.304;18.294;2022-12-10T01:34:51;100948.19;;;-3.07;69.07
76311;BME280;65120;59.304;18.294;2022-12-10T01:37:18;100945.50;;;-3.10;69.10
76311;BME280;65120;59.304;18.294;2022-12-10T01:39:44;100921.97;;;-3.24;69.24
76311;BME280;65120;59.304;18.294;2022-12-10T01:42:13;100936.91;;;-3.12;69.10
76311;BME280;65120;59.304;18.294;2022-12-10T01:45:08;100935.00;;;-3.16;69.19
76311;BME280;65120;59.304;18.294;2022-12-10T01:47:35;100937.53;;;-3.18;69.24
76311;BME280;65120;59.304;18.294;2022-12-10T01:50:03;100940.13;;;-3.16;69.02
76311;BME280;65120;59.304;18.294;2022-12-10T01:52:30;100947.97;;;-3.11;68.90
76311;BME280;65120;59.304;18.294;2022-12-10T01:54:57;100935.78;;;-3.19;69.30
76311;BME280;65120;59.304;18.294;2022-12-10T01:57:26;100938.50;;;-3.14;69.36
76311;BME280;65120;59.304;18.294;2022-12-10T01:59:55;100947.13;;;-3.12;69.02
76311;BME280;65120;59.304;18.294;2022-12-10T02:02:31;100947.78;;;-3.16;69.47
76311;BME280;65120;59.304;18.294;2022-12-10T02:05:12;100963.31;;;-3.11;69.42
76311;BME280;65120;59.304;18.294;2022-12-10T02:07:53;100964.19;;;-3.11;69.16
76311;BME280;65120;59.304;18.294;2022-12-10T02:10:30;100941.41;;;-3.27;69.33
76311;BME280;65120;59.304;18.294;2022-12-10T02:13:05;100969.28;;;-3.11;69.29
76311;BME280;65120;59.304;18.294;2022-12-10T02:15:36;100969.28;;;-3.11;69.33
76311;BME280;65120;59.304;18.294;2022-12-10T02:18:10;100953.72;;;-3.17;69.37
76311;BME280;65120;59.304;18.294;2022-12-10T02:20:40;100941.53;;;-3.24;69.27
76311;BME280;65120;59.304;18.294;2022-12-10T02:23:10;100970.22;;;-3.09;69.33
76311;BME280;65120;59.304;18.294;2022-12-10T02:25:41;100969.41;;;-3.08;69.24
76311;BME280;65120;59.304;18.294;2022-12-10T02:28:15;100973.72;;;-3.07;69.20
76311;BME280;65120;59.304;18.294;2022-12-10T02:30:47;100968.53;;;-3.08;69.32
76311;BME280;65120;59.304;18.294;2022-12-10T02:33:16;100975.53;;;-3.04;69.39
76311;BME280;65120;59.304;18.294;2022-12-10T02:35:45;100968.63;;;-3.07;69.53
76311;BME280;65120;59.304;18.294;2022-12-10T02:38:17;100962.69;;;-3.06;69.32
76311;BME280;65120;59.304;18.294;2022-12-10T02:40:50;100967.78;;;-3.06;69.36
76311;BME280;65120;59.304;18.294;2022-12-10T02:43:19;100957.66;;;-3.04;69.78
76311;BME280;65120;59.304;18.294;2022-12-10T02:45:50;100941.03;;;-3.15;69.21
76311;BME280;65120;59.304;18.294;2022-12-10T02:48:18;100971.41;;;-3.01;69.31
76311;BME280;65120;59.304;18.294;2022-12-10T02:50:45;100968.84;;;-3.01;69.83
76311;BME280;65120;59.304;18.294;2022-12-10T02:53:12;100938.47;;;-3.15;69.51
76311;BME280;65120;59.304;18.294;2022-12-10T02:55:51;100964.53;;;-3.02;69.63
76311;BME280;65120;59.304;18.294;2022-12-10T02:58:28;100955.88;;;-3.05;69.40
76311;BME280;65120;59.304;18.294;2022-12-10T03:01:06;100970.72;;;-2.97;69.50
76311;BME280;65120;59.304;18.294;2022-12-10T03:03:43;100969.91;;;-2.96;69.79
76311;BME280;65120;59.304;18.294;2022-12-10T03:06:17;100960.56;;;-2.95;69.65
76311;BME280;65120;59.304;18.294;2022-12-10T03:08:49;100961.31;;;-2.98;69.68
76311;BME280;65120;59.304;18.294;2022-12-10T03:11:20;100947.34;;;-3.06;69.72
76311;BME280;65120;59.304;18.294;2022-12-10T03:13:52;100952.53;;;-3.04;69.53
76311;BME280;65120;59.304;18.294;2022-12-10T03:16:22;100953.56;;;-2.99;69.78
76311;BME280;65120;59.304;18.294;2022-12-10T03:18:52;100957.06;;;-2.97;69.60
76311;BME280;65120;59.304;18.294;2022-12-10T03:21:22;100971.75;;;-2.91;69.75
76311;BME280;65120;59.304;18.294;2022-12-10T03:23:50;100943.06;;;-3.07;69.67
76311;BME280;65120;59.304;18.294;2022-12-10T03:26:18;100966.53;;;-2.95;69.73
76311;BME280;65120;59.304;18.294;2022-12-10T03:28:48;100971.88;;;-2.88;69.70
76311;BME280;65120;59.304;18.294;2022-12-10T03:31:17;100979.56;;;-2.88;69.71
76311;BME280;65120;59.304;18.294;2022-12-10T03:33:47;100975.38;;;-2.86;70.08
76311;BME280;65120;59.304;18.294;2022-12-10T03:36:15;100956.25;;;-2.96;69.73
76311;BME280;65120;59.304;18.294;2022-12-10T03:38:43;100977.13;;;-2.85;69.69
76311;BME280;65120;59.304;18.294;2022-12-10T03:41:10;100973.75;;;-2.84;69.43
76311;BME280;65120;59.304;18.294;2022-12-10T03:43:50;100965.09;;;-2.88;69.68
76311;BME280;65120;59.304;18.294;2022-12-10T03:46:17;100970.38;;;-2.83;69.78
76311;BME280;65120;59.304;18.294;2022-12-10T03:48:43;100975.53;;;-2.82;69.87
76311;BME280;65120;59.304;18.294;2022-12-10T03:51:11;100970.50;;;-2.80;69.92
76311;BME280;65120;59.304;18.294;2022-12-10T03:53:38;100968.78;;;-2.81;69.99
76311;BME280;65120;59.304;18.294;2022-12-10T03:56:05;100975.72;;;-2.77;69.76
76311;BME280;65120;59.304;18.294;2022-12-10T03:58:32;100965.50;;;-2.77;69.85
76311;BME280;65120;59.304;18.294;2022-12-10T04:00:59;100970.72;;;-2.74;69.97
76311;BME280;65120;59.304;18.294;2022-12-10T04:03:26;100964.81;;;-2.73;69.77
76311;BME280;65120;59.304;18.294;2022-12-10T04:05:52;100964.81;;;-2.73;69.71
76311;BME280;65120;59.304;18.294;2022-12-10T04:08:21;100960.63;;;-2.71;69.99
76311;BME280;65120;59.304;18.294;2022-12-10T04:10:47;100966.66;;;-2.69;69.92
76311;BME280;65120;59.304;18.294;2022-12-10T04:13:14;100953.66;;;-2.75;69.80
76311;BME280;65120;59.304;18.294;2022-12-10T04:15:58;100960.72;;;-2.68;69.81
76311;BME280;65120;59.304;18.294;2022-12-10T04:18:42;100959.06;;;-2.67;69.69
76311;BME280;65120;59.304;18.294;2022-12-10T04:21:09;100959.94;;;-2.67;69.86
76311;BME280;65120;59.304;18.294;2022-12-10T04:23:55;100965.09;;;-2.65;70.09
76311;BME280;65120;59.304;18.294;2022-12-10T04:26:39;100967.72;;;-2.64;69.98
76311;BME280;65120;59.304;18.294;2022-12-10T04:29:21;100966.84;;;-2.64;69.90
76311;BME280;65120;59.304;18.294;2022-12-10T04:31:48;100969.47;;;-2.63;69.66
76311;BME280;65120;59.304;18.294;2022-12-10T04:34:15;100945.28;;;-2.71;69.86
76311;BME280;65120;59.304;18.294;2022-12-10T04:36:42;100958.44;;;-2.62;69.92
76311;BME280;65120;59.304;18.294;2022-12-10T04:39:10;100957.50;;;-2.64;69.63
76311;BME280;65120;59.304;18.294;2022-12-10T04:41:38;100950.50;;;-2.68;69.87
76311;BME280;65120;59.304;18.294;2022-12-10T04:44:05;100963.66;;;-2.59;69.97
76311;BME280;65120;59.304;18.294;2022-12-10T04:46:32;100971.34;;;-2.59;69.90
76311;BME280;65120;59.304;18.294;2022-12-10T04:48:59;100959.41;;;-2.58;69.92
76311;BME280;65120;59.304;18.294;2022-12-10T04:51:26;100959.44;;;-2.57;70.06
76311;BME280;65120;59.304;18.294;2022-12-10T04:53:52;100966.34;;;-2.56;70.07
76311;BME280;65120;59.304;18.294;2022-12-10T04:56:20;100956.97;;;-2.55;70.08
76311;BME280;65120;59.304;18.294;2022-12-10T04:58:47;100949.06;;;-2.61;70.13
76311;BME280;65120;59.304;18.294;2022-12-10T05:01:14;100968.13;;;-2.53;69.93
76311;BME280;65120;59.304;18.294;2022-12-10T05:03:41;100968.19;;;-2.52;70.53
76311;BME280;65120;59.304;18.294;2022-12-10T05:06:10;100966.47;;;-2.51;70.57
76311;BME280;65120;59.304;18.294;2022-12-10T05:08:38;100964.88;;;-2.49;70.07
76311;BME280;65120;59.304;18.294;2022-12-10T05:11:08;100958.94;;;-2.48;70.42
76311;BME280;65120;59.304;18.294;2022-12-10T05:13:37;100961.56;;;-2.46;70.44
76311;BME280;65120;59.304;18.294;2022-12-10T05:16:05;100962.41;;;-2.46;69.95
76311;BME280;65120;59.304;18.294;2022-12-10T05:18:33;100960.69;;;-2.47;70.07
76311;BME280;65120;59.304;18.294;2022-12-10T05:21:00;100969.41;;;-2.42;70.08
76311;BME280;65120;59.304;18.294;2022-12-10T05:23:27;100965.16;;;-2.41;70.05
76311;BME280;65120;59.304;18.294;2022-12-10T05:25:58;100972.00;;;-2.40;70.30
76311;BME280;65120;59.304;18.294;2022-12-10T05:28:25;100957.31;;;-2.46;70.21
76311;BME280;65120;59.304;18.294;2022-12-10T05:30:54;100973.75;;;-2.39;70.03
76311;BME280;65120;59.304;18.294;2022-12-10T05:33:20;100976.38;;;-2.38;70.11
76311;BME280;65120;59.304;18.294;2022-12-10T05:35:54;100969.44;;;-2.40;70.55
76311;BME280;65120;59.304;18.294;2022-12-10T05:38:22;100974.69;;;-2.37;70.17
76311;BME280;65120;59.304;18.294;2022-12-10T05:40:49;100976.41;;;-2.36;70.26
76311;BME280;65120;59.304;18.294;2022-12-10T05:43:16;100977.22;;;-2.37;70.37
76311;BME280;65120;59.304;18.294;2022-12-10T05:45:43;100982.34;;;-2.37;70.10
76311;BME280;65120;59.304;18.294;2022-12-10T05:48:12;100992.81;;;-2.31;70.42
76311;BME280;65120;59.304;18.294;2022-12-10T05:50:40;100987.69;;;-2.31;70.31
76311;BME280;65120;59.304;18.294;2022-12-10T05:53:07;100990.25;;;-2.31;70.38
76311;BME280;65120;59.304;18.294;2022-12-10T05:55:34;100990.34;;;-2.28;70.23
76311;BME280;65120;59.304;18.294;2022-12-10T05:58:01;100989.56;;;-2.27;70.29
76311;BME280;65120;59.304;18.294;2022-12-10T06:00:28;100991.25;;;-2.28;70.38
76311;BME280;65120;59.304;18.294;2022-12-10T06:02:55;100991.38;;;-2.24;69.79
76311;BME280;65120;59.304;18.294;2022-12-10T06:05:23;100994.78;;;-2.24;70.53
76311;BME280;65120;59.304;18.294;2022-12-10T06:07:50;100982.88;;;-2.23;70.45
76311;BME280;65120;59.304;18.294;2022-12-10T06:10:16;100983.69;;;-2.24;70.38
76311;BME280;65120;59.304;18.294;2022-12-10T06:12:43;100979.56;;;-2.21;70.22
76311;BME280;65120;59.304;18.294;2022-12-10T06:15:10;100988.09;;;-2.20;70.32
76311;BME280;65120;59.304;18.294;2022-12-10T06:17:37;100978.69;;;-2.21;69.96
76311;BME280;65120;59.304;18.294;2022-12-10T06:20:04;100982.16;;;-2.19;70.29
76311;BME280;65120;59.304;18.294;2022-12-10T06:22:33;100984.78;;;-2.18;70.49
76311;BME280;65120;59.304;18.294;2022-12-10T06:24:59;100974.44;;;-2.21;70.53
76311;BME280;65120;59.304;18.294;2022-12-10T06:27:26;100988.28;;;-2.16;70.53
76311;BME280;65120;59.304;18.294;2022-12-10T06:29:55;100983.16;;;-2.16;70.33
76311;BME280;65120;59.304;18.294;2022-12-10T06:32:22;100980.59;;;-2.16;70.40
76311;BME280;65120;59.304;18.294;2022-12-10T06:34:48;100981.50;;;-2.14;70.49
76311;BME280;65120;59.304;18.294;2022-12-10T06:37:15;100984.06;;;-2.14;70.45
76311;BME280;65120;59.304;18.294;2022-12-10T06:39:43;100981.50;;;-2.14;70.15
76311;BME280;65120;59.304;18.294;2022-12-10T06:42:10;100985.84;;;-2.11;70.35
76311;BME280;65120;59.304;18.294;2022-12-10T06:44:37;100985.81;;;-2.13;70.50
76311;BME280;65120;59.304;18.294;2022-12-10T06:47:04;100990.97;;;-2.11;70.14
76311;BME280;65120;59.304;18.294;2022-12-10T06:49:30;100985.84;;;-2.11;70.56
76311;BME280;65120;59.304;18.294;2022-12-10T06:51:57;100996.22;;;-2.08;70.46
76311;BME280;65120;59.304;18.294;2022-12-10T06:54:24;100997.91;;;-2.09;70.12
76311;BME280;65120;59.304;18.294;2022-12-10T06:56:52;100997.09;;;-2.08;70.66
76311;BME280;65120;59.304;18.294;2022-12-10T06:59:18;100999.66;;;-2.08;70.54
76311;BME280;65120;59.304;18.294;2022-12-10T07:01:46;101001.41;;;-2.07;70.64
76311;BME280;65120;59.304;18.294;2022-12-10T07:04:13;100993.72;;;-2.07;70.62
76311;BME280;65120;59.304;18.294;2022-12-10T07:06:40;100994.66;;;-2.05;70.79
76311;BME280;65120;59.304;18.294;2022-12-10T07:09:07;100998.94;;;-2.04;70.50
76311;BME280;65120;59.304;18.294;2022-12-10T07:11:35;100999.81;;;-2.03;70.42
76311;BME280;65120;59.304;18.294;2022-12-10T07:14:03;100998.06;;;-2.04;70.76
76311;BME280;65120;59.304;18.294;2022-12-10T07:16:32;101002.44;;;-2.01;70.42
76311;BME280;65120;59.304;18.294;2022-12-10T07:19:00;101008.34;;;-2.03;70.62
76311;BME280;65120;59.304;18.294;2022-12-10T07:21:29;101007.56;;;-2.01;70.69
76311;BME280;65120;59.304;18.294;2022-12-10T07:24:00;101000.56;;;-2.06;70.52
76311;BME280;65120;59.304;18.294;2022-12-10T07:26:29;101013.59;;;-1.99;70.58
76311;BME280;65120;59.304;18.294;2022-12-10T07:28:56;101014.47;;;-1.99;70.17
76311;BME280;65120;59.304;18.294;2022-12-10T07:31:25;101001.56;;;-2.02;70.66
76311;BME280;65120;59.304;18.294;2022-12-10T07:33:53;101014.53;;;-1.97;70.51
76311;BME280;65120;59.304;18.294;2022-12-10T07:36:23;101014.53;;;-1.97;70.50
76311;BME280;65120;59.304;18.294;2022-12-10T07:38:50;100999.13;;;-1.99;70.54
76311;BME280;65120;59.304;18.294;2022-12-10T07:41:18;101017.06;;;-1.97;70.60
76311;BME280;65120;59.304;18.294;2022-12-10T07:43:45;101005.09;;;-1.98;70.37
76311;BME280;65120;59.304;18.294;2022-12-10T07:46:14;101012.91;;;-1.95;70.49
76311;BME280;65120;59.304;18.294;2022-12-10T07:48:44;101014.59;;;-1.96;70.63
76311;BME280;65120;59.304;18.294;2022-12-10T07:51:11;101024.00;;;-1.95;70.81
76311;BME280;65120;59.304;18.294;2022-12-10T07:53:38;101027.50;;;-1.93;70.64
76311;BME280;65120;59.304;18.294;2022-12-10T07:56:06;101024.06;;;-1.93;70.51
76311;BME280;65120;59.304;18.294;2022-12-10T07:58:33;101010.91;;;-2.03;70.56
76311;BME280;65120;59.304;18.294;2022-12-10T08:01:06;101019.84;;;-1.91;70.83
76311;BME280;65120;59.304;18.294;2022-12-10T08:03:33;101027.53;;;-1.91;70.38
76311;BME280;65120;59.304;18.294;2022-12-10T08:06:03;101023.19;;;-1.94;70.79
76311;BME280;65120;59.304;18.294;2022-12-10T08:08:32;101030.16;;;-1.90;70.42
76311;BME280;65120;59.304;18.294;2022-12-10T08:10:59;101025.81;;;-1.92;70.26
76311;BME280;65120;59.304;18.294;2022-12-10T08:13:26;101029.34;;;-1.89;70.43
76311;BME280;65120;59.304;18.294;2022-12-10T08:15:53;101039.56;;;-1.89;70.69
76311;BME280;65120;59.304;18.294;2022-12-10T08:18:20;101038.78;;;-1.88;70.61
76311;BME280;65120;59.304;18.294;2022-12-10T08:20:47;101036.97;;;-1.90;70.85
76311;BME280;65120;59.304;18.294;2022-12-10T08:23:15;101033.69;;;-1.86;70.68
76311;BME280;65120;59.304;18.294;2022-12-10T08:25:42;101033.69;;;-1.86;70.84
76311;BME280;65120;59.304;18.294;2022-12-10T08:28:09;101030.38;;;-1.84;70.51
76311;BME280;65120;59.304;18.294;2022-12-10T08:30:35;101029.50;;;-1.84;70.54
76311;BME280;65120;59.304;18.294;2022-12-10T08:33:02;101036.38;;;-1.83;70.54
76311;BME280;65120;59.304;18.294;2022-12-10T08:35:29;101038.13;;;-1.82;70.85
76311;BME280;65120;59.304;18.294;2022-12-10T08:37:56;101026.84;;;-1.87;70.61
76311;BME280;65120;59.304;18.294;2022-12-10T08:40:24;101044.97;;;-1.81;70.70
76311;BME280;65120;59.304;18.294;2022-12-10T08:42:51;101038.16;;;-1.81;70.23
76311;BME280;65120;59.304;18.294;2022-12-10T08:45:18;101033.00;;;-1.82;70.73
76311;BME280;65120;59.304;18.294;2022-12-10T08:47:45;101040.81;;;-1.79;70.79
76311;BME280;65120;59.304;18.294;2022-12-10T08:50:11;101041.66;;;-1.78;70.77
76311;BME280;65120;59.304;18.294;2022-12-10T08:52:38;101037.41;;;-1.78;70.50
76311;BME280;65120;59.304;18.294;2022-12-10T08:55:06;101033.16;;;-1.77;70.88
76311;BME280;65120;59.304;18.294;2022-12-10T08:57:34;101040.84;;;-1.77;70.65
76311;BME280;65120;59.304;18.294;2022-12-10T09:00:02;101040.91;;;-1.76;70.84
76311;BME280;65120;59.304;18.294;2022-12-10T09:02:29;101034.09;;;-1.75;70.38
76311;BME280;65120;59.304;18.294;2022-12-10T09:04:56;101043.50;;;-1.74;70.22
76311;BME280;65120;59.304;18.294;2022-12-10T09:07:23;101035.03;;;-1.73;70.94
76311;BME280;65120;59.304;18.294;2022-12-10T09:09:50;101033.38;;;-1.71;70.68
76311;BME280;65120;59.304;18.294;2022-12-10T09:12:16;101041.91;;;-1.71;70.47
76311;BME280;65120;59.304;18.294;2022-12-10T09:14:45;101042.75;;;-1.72;70.67
76311;BME280;65120;59.304;18.294;2022-12-10T09:17:11;101052.22;;;-1.69;70.30
76311;BME280;65120;59.304;18.294;2022-12-10T09:19:38;101047.97;;;-1.69;70.75
76311;BME280;65120;59.304;18.294;2022-12-10T09:22:05;101048.84;;;-1.68;70.45
76311;BME280;65120;59.304;18.294;2022-12-10T09:24:32;101054.03;;;-1.67;70.76
76311;BME280;65120;59.304;18.294;2022-12-10T09:26:59;101047.22;;;-1.66;70.99
76311;BME280;65120;59.304;18.294;2022-12-10T09:29:26;101059.19;;;-1.65;70.75
76311;BME280;65120;59.304;18.294;2022-12-10T09:31:55;101060.88;;;-1.66;70.54
76311;BME280;65120;59.304;18.294;2022-12-10T09:34:21;101043.69;;;-1.70;70.71
76311;BME280;65120;59.304;18.294;2022-12-10T09:36:48;101059.19;;;-1.65;70.73
76311;BME280;65120;59.304;18.294;2022-12-10T09:39:15;101063.56;;;-1.63;70.25
76311;BME280;65120;59.304;18.294;2022-12-10T09:41:54;101056.81;;;-1.61;70.81
76311;BME280;65120;59.304;18.294;2022-12-10T09:44:31;101067.06;;;-1.61;70.79
76311;BME280;65120;59.304;18.294;2022-12-10T09:47:05;101066.22;;;-1.60;70.76
76311;BME280;65120;59.304;18.294;2022-12-10T09:49:42;101067.13;;;-1.59;70.80
76311;BME280;65120;59.304;18.294;2022-12-10T09:52:16;101064.59;;;-1.58;70.76
76311;BME280;65120;59.304;18.294;2022-12-10T09:54:48;101056.03;;;-1.58;70.76
76311;BME280;65120;59.304;18.294;2022-12-10T09:57:20;101052.66;;;-1.57;70.81
76311;BME280;65120;59.304;18.294;2022-12-10T09:59:49;101061.25;;;-1.56;70.42
76311;BME280;65120;59.304;18.294;2022-12-10T10:02:24;101056.91;;;-1.58;70.72
76311;BME280;65120;59.304;18.294;2022-12-10T10:04:54;101054.25;;;-1.61;70.43
76311;BME280;65120;59.304;18.294;2022-12-10T10:07:24;101062.09;;;-1.56;70.49
76311;BME280;65120;59.304;18.294;2022-12-10T10:09:56;101066.50;;;-1.52;70.53
76311;BME280;65120;59.304;18.294;2022-12-10T10:12:26;101056.03;;;-1.58;70.58
76311;BME280;65120;59.304;18.294;2022-12-10T10:14:53;101073.50;;;-1.48;70.54
76311;BME280;65120;59.304;18.294;2022-12-10T10:17:26;101059.78;;;-1.48;70.83
76311;BME280;65120;59.304;18.294;2022-12-10T10:19:55;101065.91;;;-1.45;70.49
76311;BME280;65120;59.304;18.294;2022-12-10T10:22:22;101058.06;;;-1.49;70.06
76311;BME280;65120;59.304;18.294;2022-12-10T10:24:48;101071.16;;;-1.42;70.70
76311;BME280;65120;59.304;18.294;2022-12-10T10:27:17;101045.97;;;-1.53;70.60
76311;BME280;65120;59.304;18.294;2022-12-10T10:29:47;101059.97;;;-1.44;70.49
76311;BME280;65120;59.304;18.294;2022-12-10T10:32:17;101069.56;;;-1.38;70.18
76311;BME280;65120;59.304;18.294;2022-12-10T10:34:46;101061.88;;;-1.38;70.02
76311;BME280;65120;59.304;18.294;2022-12-10T10:37:23;101044.41;;;-1.48;70.28
76311;BME280;65120;59.304;18.294;2022-12-10T10:39:52;101064.53;;;-1.35;70.35
76311;BME280;65120;59.304;18.294;2022-12-10T10:42:28;101061.13;;;-1.34;70.43
76311;BME280;65120;59.304;18.294;2022-12-10T10:44:59;101062.91;;;-1.33;70.96
76311;BME280;65120;59.304;18.294;2022-12-10T10:47:29;101069.75;;;-1.32;70.59
76311;BME280;65120;59.304;18.294;2022-12-10T10:49:57;101069.00;;;-1.29;70.16
76311;BME280;65120;59.304;18.294;2022-12-10T10:52:28;101062.13;;;-1.30;70.56
76311;BME280;65120;59.304;18.294;2022-12-10T10:54:55;101070.78;;;-1.27;70.74
76311;BME280;65120;59.304;18.294;2022-12-10T10:57:26;101062.16;;;-1.29;70.73
76311;BME280;65120;59.304;18.294;2022-12-10T10:59:55;101066.59;;;-1.25;70.46
76311;BME280;65120;59.304;18.294;2022-12-10T11:02:27;101074.31;;;-1.23;70.77
76311;BME280;65120;59.304;18.294;2022-12-10T11:05:05;101070.97;;;-1.22;70.45
76311;BME280;65120;59.304;18.294;2022-12-10T11:07:34;101075.19;;;-1.23;70.21
76311;BME280;65120;59.304;18.294;2022-12-10T11:10:03;101072.72;;;-1.20;70.46
76311;BME280;65120;59.304;18.294;2022-12-10T11:12:35;101077.06;;;-1.19;70.12
76311;BME280;65120;59.304;18.294;2022-12-10T11:15:28;101086.53;;;-1.16;70.36
76311;BME280;65120;59.304;18.294;2022-12-10T11:17:56;101079.72;;;-1.16;70.25
76311;BME280;65120;59.304;18.294;2022-12-10T11:20:27;101083.16;;;-1.15;70.07
76311;BME280;65120;59.304;18.294;2022-12-10T11:22:55;101078.88;;;-1.15;70.33
76311;BME280;65120;59.304;18.294;2022-12-10T11:25:34;101057.13;;;-1.27;69.93
76311;BME280;65120;59.304;18.294;2022-12-10T11:28:13;101087.50;;;-1.13;70.21
76311;BME280;65120;59.304;18.294;2022-12-10T11:30:51;101077.31;;;-1.11;70.02
76311;BME280;65120;59.304;18.294;2022-12-10T11:33:24;101081.63;;;-1.10;70.33
76311;BME280;65120;59.304;18.294;2022-12-10T11:36:00;101086.78;;;-1.08;70.10
76311;BME280;65120;59.304;18.294;2022-12-10T11:38:37;101079.88;;;-1.11;70.11
76311;BME280;65120;59.304;18.294;2022-12-10T11:41:14;101087.69;;;-1.08;69.86
76311;BME280;65120;59.304;18.294;2022-12-10T11:43:56;101082.38;;;-1.13;69.74
76311;BME280;65120;59.304;18.294;2022-12-10T11:46:44;101088.59;;;-1.06;70.10
76311;BME280;65120;59.304;18.294;2022-12-10T11:49:20;101084.31;;;-1.05;70.17
76311;BME280;65120;59.304;18.294;2022-12-10T11:51:54;101066.06;;;-1.15;69.78
76311;BME280;65120;59.304;18.294;2022-12-10T11:54:40;101078.41;;;-1.04;70.26
76311;BME280;65120;59.304;18.294;2022-12-10T11:57:16;101085.25;;;-1.03;70.06
76311;BME280;65120;59.304;18.294;2022-12-10T11:59:53;101081.88;;;-1.02;69.96
76311;BME280;65120;59.304;18.294;2022-12-10T12:02:46;101062.84;;;-1.09;69.75
76311;BME280;65120;59.304;18.294;2022-12-10T12:05:26;101071.66;;;-1.01;69.87
76311;BME280;65120;59.304;18.294;2022-12-10T12:08:05;101066.50;;;-1.02;69.83
76311;BME280;65120;59.304;18.294;2022-12-10T12:10:48;101056.84;;;-1.09;70.02
76311;BME280;65120;59.304;18.294;2022-12-10T12:13:23;101048.97;;;-1.16;69.99
76311;BME280;65120;59.304;18.294;2022-12-10T12:15:55;101077.66;;;-1.00;69.95
76311;BME280;65120;59.304;18.294;2022-12-10T12:18:28;101082.00;;;-0.99;69.76
76311;BME280;65120;59.304;18.294;2022-12-10T12:21:01;101082.00;;;-0.99;69.49
76311;BME280;65120;59.304;18.294;2022-12-10T12:23:33;101085.41;;;-0.99;70.18
76311;BME280;65120;59.304;18.294;2022-12-10T12:26:05;101091.41;;;-0.98;69.92
76311;BME280;65120;59.304;18.294;2022-12-10T12:28:36;101094.03;;;-0.97;70.13
76311;BME280;65120;59.304;18.294;2022-12-10T12:31:11;101079.19;;;-1.05;70.10
76311;BME280;65120;59.304;18.294;2022-12-10T12:33:42;101085.31;;;-1.02;70.11
76311;BME280;65120;59.304;18.294;2022-12-10T12:36:14;101093.16;;;-0.97;69.57
76311;BME280;65120;59.304;18.294;2022-12-10T12:38:46;101090.44;;;-1.02;69.95
76311;BME280;65120;59.304;18.294;2022-12-10T12:41:20;101092.34;;;-0.96;69.93
76311;BME280;65120;59.304;18.294;2022-12-10T12:43:55;101088.91;;;-0.97;69.54
76311;BME280;65120;59.304;18.294;2022-12-10T12:46:30;101094.91;;;-0.96;70.06
76311;BME280;65120;59.304;18.294;2022-12-10T12:49:02;101089.78;;;-0.96;69.61
76311;BME280;65120;59.304;18.294;2022-12-10T12:51:39;101080.28;;;-0.99;69.68
76311;BME280;65120;59.304;18.294;2022-12-10T12:54:10;101082.94;;;-0.96;69.80